Time;durP1;ratioP1;P1;durP2;ratioP2;P2;SDS_P1;SDS_P2;PMS_P1;PMS_P2;Temp;Humidity;BMP_temperature;BMP_pressure;BME280_temperature;BME280_humidity;BME280_pressure;Samples;Min_cycle;Max_cycle;Signal;HPM_P1;HPM_P2
2023/01/18 00:00:29;;;;;;;6.00;1.63;;;;;;;;;;5070362;28;20081;-61
2023/01/18 00:02:55;;;;;;;5.63;1.65;;;0.50;99.90;;;;;;5063631;28;20512;-61
2023/01/18 00:05:21;;;;;;;8.80;2.33;;;0.50;99.90;;;;;;5067897;28;20379;-61
2023/01/18 00:07:48;;;;;;;5.53;1.50;;;0.40;99.90;;;;;;5060173;28;20032;-60
2023/01/18 00:10:14;;;;;;;4.60;1.33;;;;;;;;;;5070452;28;20040;-62
2023/01/18 00:12:40;;;;;;;6.40;1.70;;;;;;;;;;5063522;28;20406;-61
2023/01/18 00:15:07;;;;;;;5.78;1.88;;;;;;;;;;5052153;28;20071;-61
2023/01/18 00:17:33;;;;;;;7.25;1.98;;;;;;;;;;5051792;28;20686;-61
2023/01/18 00:19:59;;;;;;;5.32;1.90;;;;;;;;;;5070457;28;20041;-61
2023/01/18 00:22:25;;;;;;;5.40;1.80;;;;;;;;;;5070488;28;20040;-60
2023/01/18 00:24:51;;;;;;;6.32;1.98;;;;;;;;;;5070275;28;20090;-60
2023/01/18 00:27:16;;;;;;;5.80;1.67;;;0.60;99.90;;;;;;5068943;28;20040;-61
2023/01/18 00:29:42;;;;;;;4.55;1.40;;;0.40;99.90;;;;;;5069845;28;20040;-61
2023/01/18 00:32:08;;;;;;;6.68;1.63;;;;;;;;;;5070411;28;20110;-61
2023/01/18 00:34:35;;;;;;;10.63;2.85;;;1.10;99.90;;;;;;5070165;28;20502;-59
2023/01/18 00:37:00;;;;;;;6.78;1.75;;;0.30;99.90;;;;;;5069803;28;20055;-61
2023/01/18 00:39:29;;;;;;;7.07;1.67;;;;;;;;;;5070084;28;20494;-61
2023/01/18 00:44:39;;;;;;;6.47;1.70;;;0.20;99.90;;;;;;5058468;28;20041;-61
2023/01/18 00:47:05;;;;;;;5.35;1.65;;;;;;;;;;5063624;28;20043;-59
2023/01/18 00:49:32;;;;;;;4.60;1.60;;;;;;;;;;5068014;28;20047;-59
2023/01/18 00:51:58;;;;;;;7.88;2.83;;;;;;;;;;5052423;28;20625;-60
2023/01/18 00:54:24;;;;;;;6.00;1.85;;;;;;;;;;5069912;28;20036;-59
2023/01/18 00:56:50;;;;;;;5.53;1.77;;;;;;;;;;5034871;28;20048;-61
2023/01/18 00:59:16;;;;;;;5.32;1.58;;;;;;;;;;5067372;28;20036;-62
2023/01/18 01:01:43;;;;;;;8.93;1.85;;;0.00;99.90;;;;;;5067447;28;20040;-62
2023/01/18 01:06:53;;;;;;;5.75;1.70;;;0.00;99.90;;;;;;5064577;28;20072;-61
2023/01/18 01:09:27;;;;;;;6.53;2.35;;;-0.20;99.90;;;;;;5069189;28;20075;-59
2023/01/18 01:28:26;;;;;;;5.18;1.65;;;;;;;;;;5051072;28;20049;-61
2023/01/18 01:30:59;;;;;;;6.43;2.08;;;0.10;99.90;;;;;;5065126;28;20044;-60
2023/01/18 01:33:26;;;;;;;6.63;1.90;;;;;;;;;;5069938;28;20103;-60
2023/01/18 01:36:10;;;;;;;5.63;1.60;;;0.00;99.90;;;;;;5069537;28;20045;-61
2023/01/18 01:38:36;;;;;;;6.18;1.80;;;;;;;;;;5070107;28;20047;-61
2023/01/18 01:41:07;;;;;;;7.45;1.92;;;;;;;;;;5068770;28;20036;-62
2023/01/18 01:43:53;;;;;;;8.57;3.15;;;;;;;;;;5060463;28;20387;-62
2023/01/18 01:46:33;;;;;;;6.50;2.35;;;-0.50;99.90;;;;;;5063807;28;20040;-62
2023/01/18 01:49:18;;;;;;;5.70;1.88;;;;;;;;;;5068224;28;20127;-61
2023/01/18 01:51:45;;;;;;;7.13;1.90;;;;;;;;;;5068342;28;20719;-61
2023/01/18 01:54:25;;;;;;;4.82;1.90;;;0.30;99.90;;;;;;5068234;28;20040;-62
2023/01/18 01:56:53;;;;;;;6.22;1.80;;;;;;;;;;5072754;28;20060;-62
2023/01/18 01:59:19;;;;;;;9.00;1.88;;;;;;;;;;5054481;28;20043;-61
2023/01/18 02:01:45;;;;;;;4.53;1.60;;;;;;;;;;5066096;28;20040;-61
2023/01/18 02:04:12;;;;;;;4.70;1.50;;;0.30;99.90;;;;;;5055148;28;20062;-60
2023/01/18 02:06:38;;;;;;;7.07;1.70;;;;;;;;;;5072697;28;20089;-61
2023/01/18 02:09:09;;;;;;;5.32;1.70;;;;;;;;;;5067653;28;20075;-61
2023/01/18 02:11:35;;;;;;;4.47;1.48;;;;;;;;;;5061355;28;20044;-61
2023/01/18 02:14:04;;;;;;;4.22;1.35;;;;;;;;;;5059748;28;20517;-62
2023/01/18 02:16:48;;;;;;;11.85;2.58;;;;;;;;;;5067364;28;20044;-62
2023/01/18 02:19:33;;;;;;;5.35;1.90;;;0.00;99.90;;;;;;5072418;28;20068;-59
2023/01/18 02:22:26;;;;;;;6.15;1.92;;;;;;;;;;5070439;28;20032;-61
2023/01/18 02:25:05;;;;;;;5.40;1.70;;;;;;;;;;5072606;28;20127;-62
2023/01/18 02:27:50;;;;;;;4.35;1.80;;;;;;;;;;5068328;28;20115;-60
2023/01/18 02:30:24;;;;;;;5.80;1.60;;;0.30;99.90;;;;;;5068567;28;20040;-61
2023/01/18 02:32:50;;;;;;;8.85;1.85;;;;;;;;;;5072261;28;20040;-61
2023/01/18 02:35:29;;;;;;;6.18;1.77;;;;;;;;;;5067160;28;20397;-61
2023/01/18 02:38:16;;;;;;;6.35;2.38;;;;;;;;;;5061567;28;20399;-61
2023/01/18 02:41:13;;;;;;;7.18;2.10;;;0.60;99.90;;;;;;5072020;28;20040;-61
2023/01/18 02:46:35;;;;;;;7.63;2.22;;;;;;;;;;5069383;28;20379;-61
2023/01/18 02:49:06;;;;;;;6.57;1.88;;;;;;;;;;5057759;28;20037;-61
2023/01/18 02:51:32;;;;;;;5.55;2.00;;;;;;;;;;5067791;28;20089;-62
2023/01/18 02:53:58;;;;;;;5.13;2.42;;;;;;;;;;5072062;28;20033;-61
2023/01/18 02:56:24;;;;;;;7.60;3.10;;;;;;;;;;5054059;28;20048;-61
2023/01/18 02:58:55;;;;;;;9.27;3.05;;;;;;;;;;5053304;28;20122;-61
2023/01/18 03:01:25;;;;;;;6.60;2.40;;;;;;;;;;5063138;28;20178;-61
2023/01/18 03:04:03;;;;;;;5.80;2.13;;;0.30;99.90;;;;;;5071403;28;20044;-61
2023/01/18 03:06:29;;;;;;;7.28;2.38;;;;;;;;;;5068949;28;20040;-60
2023/01/18 03:08:56;;;;;;;6.57;2.38;;;;;;;;;;5061897;28;20046;-62
2023/01/18 03:11:43;;;;;;;5.85;2.38;;;;;;;;;;5065446;28;20052;-61
2023/01/18 03:14:30;;;;;;;6.35;2.08;;;;;;;;;;5071279;28;20061;-61
2023/01/18 03:17:04;;;;;;;4.65;2.00;;;;;;;;;;5070961;28;20410;-61
2023/01/18 03:20:06;;;;;;;6.60;2.20;;;;;;;;;;5057811;28;20123;-62
2023/01/18 03:25:48;;;;;;;6.45;2.25;;;;;;;;;;5048512;28;20080;-62
2023/01/18 03:34:08;;;;;;;7.43;2.15;;;;;;;;;;5060727;28;20040;-62
2023/01/18 03:36:43;;;;;;;6.07;2.58;;;1.00;99.90;;;;;;5057612;28;20051;-62
2023/01/18 03:39:10;;;;;;;5.10;2.10;;;;;;;;;;5069983;28;20051;-62
2023/01/18 03:41:41;;;;;;;8.80;2.97;;;1.00;99.90;;;;;;5057059;28;20082;-62
2023/01/18 03:44:10;;;;;;;5.43;2.10;;;;;;;;;;5070119;28;20112;-62
2023/01/18 03:46:36;;;;;;;6.90;2.72;;;;;;;;;;5070574;28;20406;-62
2023/01/18 03:49:02;;;;;;;12.05;3.90;;;;;;;;;;5052554;28;20068;-62
2023/01/18 03:52:03;;;;;;;6.93;2.80;;;0.80;99.90;;;;;;5049993;28;20093;-63
2023/01/18 03:54:33;;;;;;;9.30;3.80;;;;;;;;;;5027550;28;20510;-61
2023/01/18 03:57:02;;;;;;;8.27;3.05;;;;;;;;;;5064360;28;20044;-62
2023/01/18 03:59:30;;;;;;;8.52;3.35;;;;;;;;;;5062431;28;20037;-62
2023/01/18 04:01:56;;;;;;;10.20;3.65;;;;;;;;;;5070292;28;20037;-62
2023/01/18 04:04:22;;;;;;;8.88;3.50;;;;;;;;;;5070351;28;20081;-60
2023/01/18 04:06:48;;;;;;;11.25;4.10;;;;;;;;;;5070313;28;20740;-60
2023/01/18 04:09:14;;;;;;;9.00;3.47;;;;;;;;;;5064025;28;20148;-63
2023/01/18 04:11:39;;;;;;;8.10;3.75;;;0.80;99.90;;;;;;5067277;28;20398;-62
2023/01/18 04:14:05;;;;;;;7.32;3.47;;;;;;;;;;5070477;28;20040;-62
2023/01/18 04:16:32;;;;;;;8.65;4.10;;;;;;;;;;5065634;28;20510;-62
2023/01/18 04:18:57;;;;;;;13.63;4.38;;;0.90;99.90;;;;;;5069534;28;20037;-62
2023/01/18 04:21:23;;;;;;;7.75;4.57;;;;;;;;;;5070397;28;20123;-62
2023/01/18 04:23:49;;;;;;;9.35;4.50;;;;;;;;;;5070093;28;20032;-61
2023/01/18 04:26:15;;;;;;;11.13;4.18;;;;;;;;;;5064005;28;20043;-61
2023/01/18 04:28:41;;;;;;;9.25;4.28;;;0.80;99.90;;;;;;5069538;28;20044;-59
2023/01/18 04:31:07;;;;;;;12.20;4.65;;;;;;;;;;5067699;28;20041;-62
2023/01/18 04:33:33;;;;;;;7.28;3.85;;;;;;;;;;5062384;28;20117;-62
2023/01/18 04:35:59;;;;;;;9.10;3.95;;;;;;;;;;5057241;28;20129;-62
2023/01/18 04:38:25;;;;;;;12.27;5.03;;;0.90;99.90;;;;;;5057092;28;20033;-62
2023/01/18 04:40:51;;;;;;;9.35;4.30;;;0.90;99.90;;;;;;5069432;28;20498;-61
2023/01/18 04:43:17;;;;;;;10.20;4.47;;;;;;;;;;5070107;28;20111;-61
2023/01/18 04:45:45;;;;;;;9.88;4.28;;;;;;;;;;5051825;28;20048;-61
2023/01/18 04:48:11;;;;;;;8.00;4.20;;;;;;;;;;5069461;28;20048;-62
2023/01/18 04:50:45;;;;;;;9.35;5.07;;;;;;;;;;5070033;28;20049;-59
2023/01/18 04:53:11;;;;;;;14.20;4.93;;;;;;;;;;5056553;28;20044;-61
2023/01/18 04:55:37;;;;;;;7.55;3.83;;;;;;;;;;5063094;28;20051;-61
2023/01/18 04:58:02;;;;;;;10.20;6.45;;;1.10;99.90;;;;;;5067900;28;20040;-62
2023/01/18 05:00:28;;;;;;;10.30;4.18;;;;;;;;;;5069637;28;20494;-61
2023/01/18 05:02:54;;;;;;;9.48;4.05;;;1.20;99.90;;;;;;5065226;28;20033;-62
2023/01/18 05:05:21;;;;;;;13.05;5.85;;;;;;;;;;5070291;28;20052;-61
2023/01/18 05:07:46;;;;;;;10.35;4.85;;;1.10;99.90;;;;;;5047325;28;20076;-62
2023/01/18 05:10:13;;;;;;;10.70;4.85;;;;;;;;;;5062946;28;20117;-62
2023/01/18 05:12:39;;;;;;;11.57;4.68;;;;;;;;;;5061538;28;20461;-59
2023/01/18 05:15:05;;;;;;;11.68;4.75;;;;;;;;;;5068616;28;20124;-62
2023/01/18 05:17:33;;;;;;;9.63;4.53;;;;;;;;;;5071190;28;20048;-62
2023/01/18 05:19:59;;;;;;;9.40;4.50;;;;;;;;;;5053321;28;20112;-62
2023/01/18 05:22:26;;;;;;;9.82;4.28;;;;;;;;;;5073708;28;20047;-61
2023/01/18 05:24:53;;;;;;;9.32;4.38;;;0.80;99.90;;;;;;5073526;28;20125;-62
2023/01/18 05:27:19;;;;;;;10.00;4.60;;;;;;;;;;5073101;28;20583;-62
2023/01/18 05:29:47;;;;;;;10.70;4.30;;;0.50;99.90;;;;;;5073368;28;20040;-62
2023/01/18 05:32:13;;;;;;;11.13;5.22;;;;;;;;;;5073053;28;20485;-62
2023/01/18 05:34:39;;;;;;;10.57;4.43;;;0.90;99.90;;;;;;5069490;28;20036;-62
2023/01/18 05:37:04;;;;;;;9.68;4.22;;;0.90;99.90;;;;;;5045400;28;20375;-62
2023/01/18 05:39:30;;;;;;;9.48;4.32;;;;;;;;;;5052294;28;20114;-61
2023/01/18 05:41:57;;;;;;;9.43;4.35;;;;;;;;;;5068721;28;20128;-62
2023/01/18 05:44:26;;;;;;;10.35;5.03;;;;;;;;;;5069245;28;20093;-61
2023/01/18 05:46:52;;;;;;;9.43;3.85;;;;;;;;;;5069429;28;20040;-61
2023/01/18 05:49:17;;;;;;;8.32;3.75;;;0.90;99.90;;;;;;5059566;28;20036;-62
2023/01/18 05:51:43;;;;;;;8.50;3.85;;;;;;;;;;5061100;28;20123;-61
2023/01/18 05:54:10;;;;;;;9.85;4.47;;;;;;;;;;5067686;28;20109;-62
2023/01/18 05:56:36;;;;;;;14.18;4.60;;;0.90;99.90;;;;;;5072980;28;20040;-62
2023/01/18 05:59:02;;;;;;;8.30;3.72;;;0.90;99.90;;;;;;5067353;28;20086;-61
2023/01/18 06:01:28;;;;;;;11.38;4.50;;;;;;;;;;5063950;28;20521;-61
2023/01/18 06:03:54;;;;;;;9.65;4.22;;;;;;;;;;5045352;28;20056;-61
2023/01/18 06:06:27;;;;;;;9.15;3.90;;;;;;;;;;5059967;28;20040;-62
2023/01/18 06:08:54;;;;;;;9.10;4.05;;;;;;;;;;5044778;28;20041;-63
2023/01/18 06:11:20;;;;;;;7.50;3.50;;;;;;;;;;5066599;28;20098;-62
2023/01/18 06:13:46;;;;;;;8.77;3.50;;;;;;;;;;5060900;28;20036;-60
2023/01/18 06:16:12;;;;;;;8.70;3.88;;;;;;;;;;5047877;28;20044;-62
2023/01/18 06:18:38;;;;;;;8.98;3.70;;;;;;;;;;5066464;28;20510;-62
2023/01/18 06:21:04;;;;;;;8.07;3.90;;;;;;;;;;5063528;28;20037;-62
2023/01/18 06:23:30;;;;;;;10.20;4.18;;;0.80;99.90;;;;;;5062650;28;20044;-62
2023/01/18 06:25:56;;;;;;;9.52;4.00;;;1.10;99.90;;;;;;5069385;28;20033;-62
2023/01/18 06:28:22;;;;;;;12.27;3.80;;;;;;;;;;5070542;28;20150;-62
2023/01/18 06:30:51;;;;;;;10.10;4.15;;;0.50;99.90;;;;;;5061697;28;20045;-61
2023/01/18 06:33:18;;;;;;;8.07;4.00;;;;;;;;;;5054811;28;20508;-61
2023/01/18 06:35:43;;;;;;;8.77;3.58;;;1.10;99.90;;;;;;5047461;28;20044;-62
2023/01/18 06:38:10;;;;;;;10.20;3.38;;;;;;;;;;5058957;28;20589;-62
2023/01/18 06:40:35;;;;;;;8.70;3.30;;;1.20;99.90;;;;;;5070401;28;20085;-62
2023/01/18 06:43:01;;;;;;;9.63;3.00;;;1.30;99.90;;;;;;5065688;28;20063;-62
2023/01/18 06:45:28;;;;;;;7.18;3.08;;;;;;;;;;5069116;28;20143;-61
2023/01/18 06:47:54;;;;;;;7.85;2.80;;;;;;;;;;5065339;28;20043;-62
2023/01/18 06:50:21;;;;;;;7.05;3.03;;;1.50;99.90;;;;;;5026877;28;20076;-63
2023/01/18 06:52:47;;;;;;;8.82;2.70;;;;;;;;;;5047941;28;20391;-62
2023/01/18 06:55:14;;;;;;;9.73;3.15;;;;;;;;;;5058908;28;20049;-62
2023/01/18 06:57:40;;;;;;;8.85;3.60;;;;;;;;;;5066852;28;20041;-62
2023/01/18 07:00:06;;;;;;;8.07;3.53;;;;;;;;;;5063919;28;20068;-62
2023/01/18 07:02:33;;;;;;;7.82;2.90;;;1.50;99.90;;;;;;5064314;28;20029;-59
2023/01/18 07:04:59;;;;;;;7.25;3.05;;;1.50;99.90;;;;;;5046381;28;20033;-62
2023/01/18 07:07:25;;;;;;;8.63;3.30;;;;;;;;;;5055315;28;20037;-61
2023/01/18 07:09:51;;;;;;;7.38;2.78;;;1.40;99.90;;;;;;5064563;28;20037;-62
2023/01/18 07:12:17;;;;;;;6.78;2.85;;;;;;;;;;5058442;28;20036;-62
2023/01/18 07:14:43;;;;;;;14.18;3.47;;;;;;;;;;5060260;28;20071;-62
2023/01/18 07:17:09;;;;;;;7.93;2.92;;;;;;;;;;5056932;28;20068;-62
2023/01/18 07:19:35;;;;;;;8.55;3.05;;;;;;;;;;5041689;28;20064;-62
2023/01/18 07:22:01;;;;;;;7.90;3.10;;;;;;;;;;5059462;28;20036;-62
2023/01/18 07:24:28;;;;;;;9.35;3.28;;;;;;;;;;5066335;28;20505;-63
2023/01/18 07:26:54;;;;;;;10.45;2.80;;;;;;;;;;5063668;28;20036;-62
2023/01/18 07:29:20;;;;;;;8.80;3.38;;;;;;;;;;5063430;28;20040;-60
2023/01/18 07:31:46;;;;;;;8.45;3.53;;;;;;;;;;5053157;28;20493;-61
2023/01/18 07:34:12;;;;;;;7.25;2.70;;;;;;;;;;5065213;28;20139;-59
2023/01/18 07:36:40;;;;;;;6.72;2.75;;;;;;;;;;5049311;28;20071;-60
2023/01/18 07:39:07;;;;;;;6.95;2.80;;;;;;;;;;5057441;28;20048;-61
2023/01/18 07:41:33;;;;;;;5.38;2.20;;;;;;;;;;5062835;28;20421;-62
2023/01/18 07:43:59;;;;;;;7.72;2.75;;;;;;;;;;5063991;28;20032;-62
2023/01/18 07:46:25;;;;;;;6.72;2.88;;;;;;;;;;5065616;28;20067;-62
2023/01/18 07:48:51;;;;;;;9.93;2.75;;;;;;;;;;5054533;28;20040;-62
2023/01/18 07:51:18;;;;;;;7.63;2.67;;;;;;;;;;5057996;28;20045;-62
2023/01/18 07:53:44;;;;;;;10.70;3.40;;;;;;;;;;5063533;28;20043;-61
2023/01/18 07:56:14;;;;;;;9.43;2.95;;;;;;;;;;5066024;28;20128;-59
2023/01/18 07:58:40;;;;;;;8.10;3.03;;;;;;;;;;5059246;28;20116;-61
2023/01/18 08:01:18;;;;;;;7.63;3.05;;;1.30;99.90;;;;;;5068619;28;20036;-61
2023/01/18 08:03:46;;;;;;;6.93;2.75;;;;;;;;;;5057492;28;20047;-61
2023/01/18 08:06:15;;;;;;;6.80;2.58;;;;;;;;;;5049347;28;20052;-61
2023/01/18 08:08:41;;;;;;;7.63;3.75;;;1.50;99.90;;;;;;5065816;28;20043;-60
2023/01/18 08:11:08;;;;;;;8.52;3.63;;;;;;;;;;5056786;28;20390;-60
2023/01/18 08:13:34;;;;;;;8.30;3.90;;;;;;;;;;5043645;28;20044;-61
2023/01/18 08:16:01;;;;;;;9.50;4.05;;;;;;;;;;5061248;28;20132;-61
2023/01/18 08:18:27;;;;;;;8.95;4.43;;;;;;;;;;5060532;28;20106;-62
2023/01/18 08:20:53;;;;;;;11.45;4.70;;;;;;;;;;5060911;28;20072;-62
2023/01/18 08:23:19;;;;;;;10.90;5.10;;;;;;;;;;5046464;28;20072;-62
2023/01/18 08:25:46;;;;;;;8.45;4.60;;;;;;;;;;5045935;28;20079;-62
2023/01/18 08:28:12;;;;;;;10.52;4.85;;;;;;;;;;5059564;28;20048;-62
2023/01/18 08:30:42;;;;;;;11.63;5.50;;;0.80;99.90;;;;;;5066338;28;20052;-62
2023/01/18 08:33:08;;;;;;;12.50;6.13;;;0.60;99.90;;;;;;5059313;28;20036;-62
2023/01/18 08:35:39;;;;;;;12.23;6.30;;;0.50;99.90;;;;;;5059066;28;20146;-62
2023/01/18 08:38:05;;;;;;;14.48;6.40;;;;;;;;;;5068103;28;20109;-61
2023/01/18 08:40:32;;;;;;;14.38;6.28;;;;;;;;;;5061861;28;20041;-59
2023/01/18 08:42:59;;;;;;;13.50;6.10;;;;;;;;;;5041934;28;20214;-61
2023/01/18 08:45:25;;;;;;;19.17;7.63;;;;;;;;;;5042287;28;20045;-62
2023/01/18 08:47:59;;;;;;;11.35;6.78;;;;;;;;;;5058863;28;20037;-62
2023/01/18 08:50:25;;;;;;;12.93;6.10;;;;;;;;;;5063125;28;20085;-60
2023/01/18 08:52:51;;;;;;;15.32;6.95;;;;;;;;;;5059652;28;20055;-61
2023/01/18 08:55:17;;;;;;;14.48;6.90;;;0.90;99.90;;;;;;5040164;28;20179;-62
2023/01/18 08:57:43;;;;;;;14.82;6.78;;;;;;;;;;5069916;28;20040;-61
2023/01/18 09:00:09;;;;;;;12.35;7.32;;;;;;;;;;5061202;28;20397;-60
2023/01/18 09:02:35;;;;;;;13.02;6.45;;;;;;;;;;5060047;28;20033;-61
2023/01/18 09:05:02;;;;;;;13.40;7.07;;;;;;;;;;5060198;28;20048;-60
2023/01/18 09:07:28;;;;;;;12.25;6.53;;;;;;;;;;5062073;28;20037;-59
2023/01/18 09:09:54;;;;;;;12.95;7.35;;;;;;;;;;5064494;28;20123;-61
2023/01/18 09:12:20;;;;;;;16.90;7.43;;;;;;;;;;5072618;28;20117;-62
2023/01/18 09:14:46;;;;;;;14.30;7.15;;;;;;;;;;5073189;28;20110;-62
2023/01/18 09:17:13;;;;;;;15.02;7.45;;;;;;;;;;5073017;28;20048;-62
2023/01/18 09:19:39;;;;;;;11.13;5.75;;;;;;;;;;5059315;28;20036;-61
2023/01/18 09:22:05;;;;;;;13.70;8.40;;;;;;;;;;5058936;28;20120;-59
2023/01/18 09:24:32;;;;;;;11.02;6.15;;;;;;;;;;5063772;28;20052;-60
2023/01/18 09:26:57;;;;;;;16.75;6.28;;;1.60;99.90;;;;;;5069506;28;20405;-62
2023/01/18 09:29:23;;;;;;;12.02;6.22;;;;;;;;;;5069173;28;20231;-61
2023/01/18 09:31:49;;;;;;;13.45;6.40;;;;;;;;;;5070995;28;20037;-62
2023/01/18 09:34:17;;;;;;;13.65;6.47;;;;;;;;;;5049282;28;20464;-61
2023/01/18 09:36:43;;;;;;;10.43;5.60;;;;;;;;;;5070574;28;20048;-61
2023/01/18 09:39:08;;;;;;;11.70;5.95;;;1.90;99.90;;;;;;5066245;28;20040;-62
2023/01/18 09:41:38;;;;;;;8.95;4.68;;;;;;;;;;5051984;28;20032;-62
2023/01/18 09:44:15;;;;;;;12.63;5.95;;;1.90;99.90;;;;;;5070144;28;20093;-59
2023/01/18 09:46:42;;;;;;;12.15;5.75;;;;;;;;;;5067651;28;20040;-61
2023/01/18 09:49:20;;;;;;;13.77;5.82;;;2.50;99.90;;;;;;5072037;28;20082;-62
2023/01/18 09:51:49;;;;;;;9.45;4.15;;;;;;;;;;5048964;28;20119;-62
2023/01/18 09:54:25;;;;;;;11.57;5.05;;;;;;;;;;5062448;28;20052;-62
2023/01/18 09:56:58;;;;;;;9.88;4.60;;;;;;;;;;5069451;28;20059;-61
2023/01/18 09:59:32;;;;;;;13.45;4.65;;;;;;;;;;5069726;28;20043;-62
2023/01/18 10:02:02;;;;;;;9.20;3.97;;;2.90;99.90;;;;;;5059716;28;20037;-61
2023/01/18 10:04:38;;;;;;;8.40;4.55;;;3.00;99.90;;;;;;5060663;28;20394;-60
2023/01/18 10:07:13;;;;;;;13.85;5.97;;;;;;;;;;5060838;28;20048;-60
2023/01/18 10:09:53;;;;;;;10.38;4.78;;;3.50;99.90;;;;;;5066246;28;20064;-62
2023/01/18 10:12:45;;;;;;;10.75;4.65;;;;;;;;;;5067436;28;20045;-61
2023/01/18 10:15:19;;;;;;;10.65;4.70;;;;;;;;;;5030381;28;20048;-59
2023/01/18 10:17:46;;;;;;;8.23;4.25;;;3.60;99.90;;;;;;5061125;28;20036;-62
2023/01/18 10:20:13;;;;;;;10.00;4.60;;;;;;;;;;5039902;28;20048;-62
2023/01/18 10:23:30;;;;;;;8.88;4.50;;;3.90;99.90;;;;;;5061500;28;20040;-62
2023/01/18 10:25:59;;;;;;;12.93;4.50;;;;;;;;;;5050858;28;20045;-61
2023/01/18 10:29:01;;;;;;;6.35;3.35;;;4.30;99.90;;;;;;5061851;28;20044;-62
2023/01/18 10:31:33;;;;;;;7.65;3.47;;;4.40;99.90;;;;;;5055751;28;20045;-62
2023/01/18 10:34:00;;;;;;;9.70;3.50;;;;;;;;;;5042265;28;20403;-62
2023/01/18 10:36:37;;;;;;;8.70;3.72;;;;;;;;;;5066115;28;20490;-62
2023/01/18 10:39:05;;;;;;;12.88;3.58;;;;;;;;;;5067613;28;20033;-60
2023/01/18 10:41:34;;;;;;;9.02;3.42;;;;;;;;;;5069275;28;20176;-60
2023/01/18 10:44:01;;;;;;;6.57;3.45;;;;;;;;;;5068566;28;20036;-61
2023/01/18 10:46:27;;;;;;;7.50;2.63;;;;;;;;;;5067101;28;20514;-62
2023/01/18 10:48:56;;;;;;;6.72;2.58;;;;;;;;;;5068243;28;20040;-60
2023/01/18 10:51:33;;;;;;;6.82;2.47;;;4.40;99.90;;;;;;5051538;28;20101;-60
2023/01/18 10:54:20;;;;;;;7.50;3.20;;;;;;;;;;5067543;28;20032;-62
2023/01/18 10:56:46;;;;;;;6.82;3.15;;;;;;;;;;5049534;28;20044;-61
2023/01/18 10:59:29;;;;;;;6.25;2.40;;;4.50;99.90;;;;;;5062224;28;20486;-61
2023/01/18 11:01:57;;;;;;;5.90;2.08;;;;;;;;;;5066490;28;20028;-62
2023/01/18 11:04:28;;;;;;;8.60;2.92;;;;;;;;;;5054166;28;20498;-60
2023/01/18 11:06:58;;;;;;;7.88;2.45;;;;;;;;;;5071167;28;20108;-61
2023/01/18 11:09:27;;;;;;;7.85;2.97;;;;;;;;;;5063512;28;20040;-62
2023/01/18 11:14:56;;;;;;;7.57;2.72;;;;;;;;;;5067331;28;20075;-64
2023/01/18 11:17:22;;;;;;;6.35;3.03;;;4.90;99.90;;;;;;5047243;28;20083;-62
2023/01/18 11:20:04;;;;;;;9.45;4.20;;;;;;;;;;5046914;28;20047;-62
2023/01/18 11:22:32;;;;;;;10.32;3.00;;;;;;;;;;5043610;28;20055;-61
2023/01/18 11:24:58;;;;;;;6.15;2.80;;;;;;;;;;5070882;28;20123;-63
2023/01/18 11:27:24;;;;;;;8.93;2.97;;;;;;;;;;5055864;28;20212;-62
2023/01/18 11:29:51;;;;;;;5.78;2.30;;;;;;;;;;5063694;28;20037;-60
2023/01/18 11:32:28;;;;;;;7.68;2.38;;;5.40;99.90;;;;;;5055847;28;20089;-60
2023/01/18 11:34:55;;;;;;;7.93;2.22;;;;;;;;;;5056619;28;20098;-62
2023/01/18 11:37:28;;;;;;;7.85;2.22;;;4.90;99.90;;;;;;5060921;28;20072;-61
2023/01/18 11:39:54;;;;;;;7.68;2.90;;;;;;;;;;5066038;28;20111;-62
2023/01/18 11:42:34;;;;;;;5.93;2.13;;;;;;;;;;5060652;28;20363;-62
2023/01/18 11:45:18;;;;;;;8.73;2.30;;;5.70;99.90;;;;;;5067058;28;20068;-62
2023/01/18 11:47:52;;;;;;;4.95;2.03;;;5.50;99.90;;;;;;5057883;28;20036;-63
2023/01/18 11:50:30;;;;;;;6.38;2.40;;;;;;;;;;5063865;28;20051;-61
2023/01/18 11:53:10;;;;;;;5.00;1.70;;;5.00;99.90;;;;;;5058671;28;20080;-62
2023/01/18 11:55:41;;;;;;;5.00;1.77;;;;;;;;;;5039565;28;20414;-63
2023/01/18 11:58:15;;;;;;;6.38;2.22;;;;;;;;;;5068199;28;20028;-62
2023/01/18 12:00:50;;;;;;;5.40;2.22;;;;;;;;;;5059741;28;20048;-62
2023/01/18 12:03:25;;;;;;;5.65;2.10;;;;;;;;;;5066663;28;20048;-63
2023/01/18 12:05:59;;;;;;;6.22;2.53;;;;;;;;;;5059553;28;20127;-62
2023/01/18 12:08:25;;;;;;;6.07;1.85;;;;;;;;;;5064259;28;20040;-63
2023/01/18 12:11:42;;;;;;;5.22;1.60;;;6.30;99.90;;;;;;5040140;28;20067;-62
2023/01/18 12:14:18;;;;;;;5.35;1.65;;;;;;;;;;5008262;28;20037;-62
2023/01/18 12:17:04;;;;;;;4.68;1.40;;;;;;;;;;5040708;28;20425;-60
2023/01/18 12:19:38;;;;;;;5.43;1.70;;;;;;;;;;5011709;28;20044;-62
2023/01/18 12:22:22;;;;;;;4.25;1.40;;;;;;;;;;5070746;28;20042;-62
2023/01/18 12:25:07;;;;;;;6.43;2.00;;;;;;;;;;5070498;28;20037;-62
2023/01/18 12:27:56;;;;;;;6.53;1.70;;;5.60;99.90;;;;;;5068894;28;20665;-60
2023/01/18 12:30:22;;;;;;;6.38;1.52;;;5.70;99.90;;;;;;5064104;28;20044;-62
2023/01/18 12:32:48;;;;;;;4.93;1.45;;;;;;;;;;5069780;28;20040;-61
2023/01/18 12:35:28;;;;;;;6.82;1.63;;;5.70;99.90;;;;;;5067633;28;20066;-61
2023/01/18 12:38:21;;;;;;;7.18;1.92;;;4.90;99.90;;;;;;5061554;28;20037;-61
2023/01/18 12:40:56;;;;;;;3.92;1.50;;;;;;;;;;5048235;28;20045;-62
2023/01/18 12:43:44;;;;;;;7.55;1.70;;;;;;;;;;5070093;28;20040;-61
2023/01/18 12:46:11;;;;;;;6.97;1.95;;;;;;;;;;5069742;28;20039;-62
2023/01/18 12:48:51;;;;;;;4.55;1.70;;;5.10;99.90;;;;;;5051516;28;20186;-62
2023/01/18 12:51:21;;;;;;;6.97;2.10;;;5.50;99.90;;;;;;5069475;28;20375;-62
2023/01/18 12:53:57;;;;;;;5.07;1.73;;;4.80;99.90;;;;;;5069819;28;20093;-61
2023/01/18 12:56:29;;;;;;;8.43;2.25;;;;;;;;;;5069553;28;20055;-62
2023/01/18 12:58:59;;;;;;;3.03;1.13;;;;;;;;;;5060599;28;20494;-62
2023/01/18 13:01:29;;;;;;;7.22;2.53;;;4.60;99.90;;;;;;5064474;28;20029;-62
2023/01/18 13:04:04;;;;;;;4.07;1.45;;;4.40;99.90;;;;;;5066464;28;20035;-60
2023/01/18 13:06:30;;;;;;;4.43;1.50;;;;;;;;;;5046420;28;20055;-61
2023/01/18 13:09:02;;;;;;;7.20;1.75;;;;;;;;;;5059643;28;20068;-60
2023/01/18 13:11:36;;;;;;;8.10;1.63;;;;;;;;;;5058819;28;20048;-61
2023/01/18 13:14:16;;;;;;;5.28;1.45;;;4.30;99.90;;;;;;5062303;28;20036;-62
2023/01/18 13:16:45;;;;;;;8.57;2.97;;;;;;;;;;5053377;28;20048;-62
2023/01/18 13:19:23;;;;;;;5.68;1.63;;;;;;;;;;5059831;28;20154;-62
2023/01/18 13:21:58;;;;;;;6.13;2.20;;;;;;;;;;5062287;28;20126;-62
2023/01/18 13:24:28;;;;;;;9.63;2.40;;;;;;;;;;5063625;28;20060;-62
2023/01/18 13:27:05;;;;;;;6.40;2.00;;;;;;;;;;5046722;28;20045;-62
2023/01/18 13:29:31;;;;;;;9.57;2.15;;;4.90;99.90;;;;;;5060244;28;20051;-62
2023/01/18 13:31:57;;;;;;;6.53;1.83;;;;;;;;;;5062461;28;20490;-61
2023/01/18 13:34:36;;;;;;;7.55;1.90;;;;;;;;;;5066260;28;20044;-62
2023/01/18 13:37:05;;;;;;;3.63;1.27;;;;;;;;;;5063409;28;20065;-61
2023/01/18 13:39:32;;;;;;;6.75;2.33;;;;;;;;;;5066296;28;20049;-61
2023/01/18 13:42:03;;;;;;;4.97;1.58;;;4.60;99.90;;;;;;5062461;28;20039;-62
2023/01/18 13:44:36;;;;;;;6.70;1.90;;;;;;;;;;5070179;28;20090;-61
2023/01/18 13:47:02;;;;;;;4.47;1.35;;;;;;;;;;5042385;28;20041;-62
2023/01/18 13:49:36;;;;;;;3.53;1.15;;;;;;;;;;5044656;28;20036;-61
2023/01/18 13:52:04;;;;;;;5.40;1.48;;;;;;;;;;5064992;28;20048;-60
2023/01/18 13:54:30;;;;;;;5.65;1.35;;;;;;;;;;5070816;28;20040;-62
2023/01/18 13:57:04;;;;;;;4.95;1.52;;;;;;;;;;5069295;28;20098;-61
2023/01/18 13:59:35;;;;;;;4.57;1.23;;;;;;;;;;5063934;28;20036;-61
2023/01/18 14:02:22;;;;;;;6.10;2.33;;;;;;;;;;5065121;28;20044;-61
2023/01/18 14:04:58;;;;;;;4.55;1.55;;;;;;;;;;5067660;28;20091;-62
2023/01/18 14:07:24;;;;;;;5.38;1.63;;;;;;;;;;5061543;28;20076;-62
2023/01/18 14:09:50;;;;;;;3.55;1.20;;;5.10;99.90;;;;;;5063177;28;20081;-61
2023/01/18 14:12:36;;;;;;;2.95;0.93;;;;;;;;;;5066560;28;20528;-60
2023/01/18 14:15:03;;;;;;;3.85;1.05;;;;;;;;;;5066141;28;20059;-61
2023/01/18 14:17:41;;;;;;;3.67;1.00;;;;;;;;;;5069100;28;20047;-61
2023/01/18 14:20:26;;;;;;;6.95;1.50;;;;;;;;;;5069485;28;20375;-62
2023/01/18 14:22:55;;;;;;;14.35;3.28;;;;;;;;;;5069750;28;20106;-60
2023/01/18 14:25:29;;;;;;;7.95;1.50;;;;;;;;;;5062700;28;20124;-62
2023/01/18 14:27:55;;;;;;;;;;;;;;;;;;5067243;28;20028;-62
2023/01/18 14:30:26;;;;;;;7.13;1.73;;;;;;;;;;5069756;28;20417;-61
2023/01/18 14:32:58;;;;;;;5.70;1.50;;;;;;;;;;5070608;28;20032;-62
2023/01/18 14:35:24;;;;;;;7.82;1.60;;;;;;;;;;5068529;28;20406;-62
2023/01/18 14:37:50;;;;;;;5.13;1.38;;;4.00;99.90;;;;;;5069682;28;20036;-62
2023/01/18 14:40:21;;;;;;;7.63;1.75;;;;;;;;;;5070135;28;20086;-62
2023/01/18 14:43:03;;;;;;;4.65;2.03;;;4.50;99.90;;;;;;5070181;28;20111;-62
2023/01/18 14:45:33;;;;;;;8.02;1.40;;;4.40;99.90;;;;;;5068097;28;20551;-61
2023/01/18 14:48:02;;;;;;;7.25;1.98;;;;;;;;;;5067927;28;20036;-62
2023/01/18 14:50:32;;;;;;;4.13;1.10;;;;;;;;;;5070475;28;20028;-62
2023/01/18 14:52:58;;;;;;;6.00;2.00;;;;;;;;;;5041799;28;20036;-61
2023/01/18 14:55:31;;;;;;;9.60;2.42;;;4.10;99.90;;;;;;5069043;28;20037;-62
2023/01/18 14:58:01;;;;;;;4.57;1.60;;;;;;;;;;5068897;28;20064;-62
2023/01/18 15:00:27;;;;;;;8.75;1.60;;;;;;;;;;5069018;28;20070;-63
2023/01/18 15:02:53;;;;;;;4.10;1.13;;;;;;;;;;5068166;28;20300;-64